sensor_id;sensor_type;location;lat;lon;timestamp;P1;durP1;ratioP1;P2;durP2;ratioP2
34541;SDS011;20784;51.332;12.410;2024-02-26T00:00:26;8.95;;;6.35;;
34541;SDS011;20784;51.332;12.410;2024-02-26T00:02:56;10.98;;;7.50;;
34541;SDS011;20784;51.332;12.410;2024-02-26T00:05:21;10.20;;;6.68;;
34541;SDS011;20784;51.332;12.410;2024-02-26T00:07:47;11.07;;;7.60;;
34541;SDS011;20784;51.332;12.410;2024-02-26T00:10:13;12.80;;;8.38;;
34541;SDS011;20784;51.332;12.410;2024-02-26T00:12:47;14.68;;;8.50;;
34541;SDS011;20784;51.332;12.410;2024-02-26T00:15:18;14.40;;;8.60;;
34541;SDS011;20784;51.332;12.410;2024-02-26T00:17:46;15.18;;;9.32;;
34541;SDS011;20784;51.332;12.410;2024-02-26T00:20:15;14.98;;;9.05;;
34541;SDS011;20784;51.332;12.410;2024-02-26T00:22:59;18.80;;;10.52;;
34541;SDS011;20784;51.332;12.410;2024-02-26T00:25:26;15.30;;;9.88;;
34541;SDS011;20784;51.332;12.410;2024-02-26T00:27:58;19.35;;;9.23;;
34541;SDS011;20784;51.332;12.410;2024-02-26T00:30:40;15.18;;;9.68;;
34541;SDS011;20784;51.332;12.410;2024-02-26T00:33:32;15.23;;;9.00;;
34541;SDS011;20784;51.332;12.410;2024-02-26T00:36:10;17.95;;;10.57;;
34541;SDS011;20784;51.332;12.410;2024-02-26T00:38:44;17.80;;;10.65;;
34541;SDS011;20784;51.332;12.410;2024-02-26T00:41:25;18.30;;;11.20;;
34541;SDS011;20784;51.332;12.410;2024-02-26T00:44:13;18.98;;;10.93;;
34541;SDS011;20784;51.332;12.410;2024-02-26T00:46:38;16.92;;;9.95;;
34541;SDS011;20784;51.332;12.410;2024-02-26T00:49:41;18.58;;;11.52;;
34541;SDS011;20784;51.332;12.410;2024-02-26T00:52:23;17.90;;;11.57;;
34541;SDS011;20784;51.332;12.410;2024-02-26T00:54:51;19.50;;;11.52;;
34541;SDS011;20784;51.332;12.410;2024-02-26T00:57:20;17.60;;;11.48;;
34541;SDS011;20784;51.332;12.410;2024-02-26T01:00:35;17.33;;;11.35;;
34541;SDS011;20784;51.332;12.410;2024-02-26T01:03:32;20.83;;;10.82;;
34541;SDS011;20784;51.332;12.410;2024-02-26T01:08:45;20.08;;;12.10;;
34541;SDS011;20784;51.332;12.410;2024-02-26T01:11:27;18.17;;;11.77;;
34541;SDS011;20784;51.332;12.410;2024-02-26T01:14:16;17.75;;;12.00;;
34541;SDS011;20784;51.332;12.410;2024-02-26T01:16:53;19.38;;;12.07;;
34541;SDS011;20784;51.332;12.410;2024-02-26T01:19:27;22.10;;;12.98;;
34541;SDS011;20784;51.332;12.410;2024-02-26T01:21:56;18.67;;;12.70;;
34541;SDS011;20784;51.332;12.410;2024-02-26T01:24:27;20.08;;;12.57;;
34541;SDS011;20784;51.332;12.410;2024-02-26T01:26:53;18.80;;;12.45;;
34541;SDS011;20784;51.332;12.410;2024-02-26T01:29:18;25.33;;;13.07;;
34541;SDS011;20784;51.332;12.410;2024-02-26T01:31:49;23.35;;;12.40;;
34541;SDS011;20784;51.332;12.410;2024-02-26T01:34:18;21.35;;;13.60;;
34541;SDS011;20784;51.332;12.410;2024-02-26T01:37:02;21.67;;;12.93;;
34541;SDS011;20784;51.332;12.410;2024-02-26T01:39:30;20.70;;;13.35;;
34541;SDS011;20784;51.332;12.410;2024-02-26T01:41:59;20.35;;;13.32;;
34541;SDS011;20784;51.332;12.410;2024-02-26T01:44:25;21.08;;;12.95;;
34541;SDS011;20784;51.332;12.410;2024-02-26T01:46:51;20.88;;;13.48;;
34541;SDS011;20784;51.332;12.410;2024-02-26T01:49:25;20.63;;;13.20;;
34541;SDS011;20784;51.332;12.410;2024-02-26T01:51:50;20.45;;;13.48;;
34541;SDS011;20784;51.332;12.410;2024-02-26T01:54:21;22.20;;;13.63;;
34541;SDS011;20784;51.332;12.410;2024-02-26T01:56:55;22.98;;;13.43;;
34541;SDS011;20784;51.332;12.410;2024-02-26T02:02:38;24.13;;;13.88;;
34541;SDS011;20784;51.332;12.410;2024-02-26T02:05:06;23.08;;;13.93;;
34541;SDS011;20784;51.332;12.410;2024-02-26T02:07:55;22.20;;;14.32;;
34541;SDS011;20784;51.332;12.410;2024-02-26T02:11:06;19.23;;;13.15;;
34541;SDS011;20784;51.332;12.410;2024-02-26T02:16:53;17.92;;;12.45;;
34541;SDS011;20784;51.332;12.410;2024-02-26T02:19:44;22.70;;;12.98;;
34541;SDS011;20784;51.332;12.410;2024-02-26T02:22:57;20.45;;;12.75;;
34541;SDS011;20784;51.332;12.410;2024-02-26T02:25:39;20.20;;;12.88;;
34541;SDS011;20784;51.332;12.410;2024-02-26T02:28:15;18.90;;;12.32;;
34541;SDS011;20784;51.332;12.410;2024-02-26T02:31:04;18.42;;;11.60;;
34541;SDS011;20784;51.332;12.410;2024-02-26T02:33:30;20.52;;;12.38;;
34541;SDS011;20784;51.332;12.410;2024-02-26T02:36:22;22.23;;;12.88;;
34541;SDS011;20784;51.332;12.410;2024-02-26T02:38:51;19.73;;;12.23;;
34541;SDS011;20784;51.332;12.410;2024-02-26T02:41:40;18.02;;;12.13;;
34541;SDS011;20784;51.332;12.410;2024-02-26T02:44:10;19.08;;;11.75;;
34541;SDS011;20784;51.332;12.410;2024-02-26T02:46:46;19.60;;;11.60;;
34541;SDS011;20784;51.332;12.410;2024-02-26T02:49:24;21.50;;;12.82;;
34541;SDS011;20784;51.332;12.410;2024-02-26T02:52:06;22.77;;;12.85;;
34541;SDS011;20784;51.332;12.410;2024-02-26T02:57:39;18.10;;;11.75;;
34541;SDS011;20784;51.332;12.410;2024-02-26T03:00:46;18.13;;;11.73;;
34541;SDS011;20784;51.332;12.410;2024-02-26T03:03:34;19.35;;;11.80;;
34541;SDS011;20784;51.332;12.410;2024-02-26T03:06:01;16.67;;;10.73;;
34541;SDS011;20784;51.332;12.410;2024-02-26T03:08:36;16.05;;;11.15;;
34541;SDS011;20784;51.332;12.410;2024-02-26T03:11:06;16.83;;;11.25;;
34541;SDS011;20784;51.332;12.410;2024-02-26T03:13:32;16.45;;;10.48;;
34541;SDS011;20784;51.332;12.410;2024-02-26T03:15:58;14.68;;;10.27;;
34541;SDS011;20784;51.332;12.410;2024-02-26T03:18:46;16.40;;;10.43;;
34541;SDS011;20784;51.332;12.410;2024-02-26T03:21:14;15.95;;;10.02;;
34541;SDS011;20784;51.332;12.410;2024-02-26T03:23:40;15.85;;;10.52;;
34541;SDS011;20784;51.332;12.410;2024-02-26T03:26:09;14.48;;;10.23;;
34541;SDS011;20784;51.332;12.410;2024-02-26T03:28:56;17.35;;;9.95;;
34541;SDS011;20784;51.332;12.410;2024-02-26T03:31:21;15.57;;;10.80;;
34541;SDS011;20784;51.332;12.410;2024-02-26T03:33:47;15.77;;;10.68;;
34541;SDS011;20784;51.332;12.410;2024-02-26T03:36:15;16.63;;;10.82;;
34541;SDS011;20784;51.332;12.410;2024-02-26T03:38:41;21.80;;;13.55;;
34541;SDS011;20784;51.332;12.410;2024-02-26T03:41:07;17.75;;;11.85;;
34541;SDS011;20784;51.332;12.410;2024-02-26T03:43:33;20.10;;;13.07;;
34541;SDS011;20784;51.332;12.410;2024-02-26T03:45:59;20.05;;;12.82;;
34541;SDS011;20784;51.332;12.410;2024-02-26T03:48:25;21.50;;;13.93;;
34541;SDS011;20784;51.332;12.410;2024-02-26T03:50:50;21.50;;;13.25;;
34541;SDS011;20784;51.332;12.410;2024-02-26T03:53:16;26.80;;;15.23;;
34541;SDS011;20784;51.332;12.410;2024-02-26T03:55:41;24.35;;;14.98;;
34541;SDS011;20784;51.332;12.410;2024-02-26T03:58:07;23.23;;;14.48;;
34541;SDS011;20784;51.332;12.410;2024-02-26T04:00:33;23.70;;;15.63;;
34541;SDS011;20784;51.332;12.410;2024-02-26T04:02:59;24.48;;;16.45;;
34541;SDS011;20784;51.332;12.410;2024-02-26T04:05:25;23.63;;;15.95;;
34541;SDS011;20784;51.332;12.410;2024-02-26T04:07:50;26.17;;;17.40;;
34541;SDS011;20784;51.332;12.410;2024-02-26T04:10:19;25.98;;;16.63;;
34541;SDS011;20784;51.332;12.410;2024-02-26T04:12:45;26.73;;;16.65;;
34541;SDS011;20784;51.332;12.410;2024-02-26T04:15:11;24.60;;;15.70;;
34541;SDS011;20784;51.332;12.410;2024-02-26T04:17:37;28.35;;;17.98;;
34541;SDS011;20784;51.332;12.410;2024-02-26T04:20:04;29.50;;;17.83;;
34541;SDS011;20784;51.332;12.410;2024-02-26T04:22:33;27.55;;;18.88;;
34541;SDS011;20784;51.332;12.410;2024-02-26T04:24:58;30.05;;;19.17;;
34541;SDS011;20784;51.332;12.410;2024-02-26T04:27:24;30.80;;;18.55;;
34541;SDS011;20784;51.332;12.410;2024-02-26T04:29:50;33.35;;;19.50;;
34541;SDS011;20784;51.332;12.410;2024-02-26T04:32:15;32.85;;;19.88;;
34541;SDS011;20784;51.332;12.410;2024-02-26T04:34:41;27.67;;;18.02;;
34541;SDS011;20784;51.332;12.410;2024-02-26T04:37:07;32.72;;;19.23;;
34541;SDS011;20784;51.332;12.410;2024-02-26T04:39:32;31.58;;;19.75;;
34541;SDS011;20784;51.332;12.410;2024-02-26T04:41:58;31.40;;;19.27;;
34541;SDS011;20784;51.332;12.410;2024-02-26T04:44:24;33.50;;;20.58;;
34541;SDS011;20784;51.332;12.410;2024-02-26T04:46:49;28.75;;;18.55;;
34541;SDS011;20784;51.332;12.410;2024-02-26T04:49:23;31.13;;;20.25;;
34541;SDS011;20784;51.332;12.410;2024-02-26T04:51:48;32.55;;;19.90;;
34541;SDS011;20784;51.332;12.410;2024-02-26T04:54:14;33.45;;;20.95;;
34541;SDS011;20784;51.332;12.410;2024-02-26T04:56:39;31.35;;;20.40;;
34541;SDS011;20784;51.332;12.410;2024-02-26T04:59:05;31.33;;;20.00;;
34541;SDS011;20784;51.332;12.410;2024-02-26T05:01:30;31.10;;;20.75;;
34541;SDS011;20784;51.332;12.410;2024-02-26T05:03:56;32.38;;;20.45;;
34541;SDS011;20784;51.332;12.410;2024-02-26T05:06:22;34.72;;;20.52;;
34541;SDS011;20784;51.332;12.410;2024-02-26T05:08:47;32.40;;;20.67;;
34541;SDS011;20784;51.332;12.410;2024-02-26T05:11:13;34.08;;;20.70;;
34541;SDS011;20784;51.332;12.410;2024-02-26T05:13:38;33.53;;;22.20;;
34541;SDS011;20784;51.332;12.410;2024-02-26T05:16:06;35.35;;;21.50;;
34541;SDS011;20784;51.332;12.410;2024-02-26T05:18:32;34.35;;;21.88;;
34541;SDS011;20784;51.332;12.410;2024-02-26T05:20:57;35.05;;;20.75;;
34541;SDS011;20784;51.332;12.410;2024-02-26T05:23:23;34.60;;;22.60;;
34541;SDS011;20784;51.332;12.410;2024-02-26T05:25:48;32.05;;;21.30;;
34541;SDS011;20784;51.332;12.410;2024-02-26T05:28:14;38.10;;;22.15;;
34541;SDS011;20784;51.332;12.410;2024-02-26T05:30:47;37.17;;;21.88;;
34541;SDS011;20784;51.332;12.410;2024-02-26T05:33:13;30.88;;;20.92;;
34541;SDS011;20784;51.332;12.410;2024-02-26T05:35:39;32.00;;;21.92;;
34541;SDS011;20784;51.332;12.410;2024-02-26T05:38:07;35.25;;;20.67;;
34541;SDS011;20784;51.332;12.410;2024-02-26T05:40:32;32.75;;;20.50;;
34541;SDS011;20784;51.332;12.410;2024-02-26T05:43:00;32.60;;;21.50;;
34541;SDS011;20784;51.332;12.410;2024-02-26T05:45:31;32.85;;;21.38;;
34541;SDS011;20784;51.332;12.410;2024-02-26T05:48:00;35.38;;;21.52;;
34541;SDS011;20784;51.332;12.410;2024-02-26T05:50:26;39.85;;;21.17;;
34541;SDS011;20784;51.332;12.410;2024-02-26T05:53:00;32.17;;;21.42;;
34541;SDS011;20784;51.332;12.410;2024-02-26T05:55:26;35.88;;;21.25;;
34541;SDS011;20784;51.332;12.410;2024-02-26T05:57:52;32.65;;;21.05;;
34541;SDS011;20784;51.332;12.410;2024-02-26T06:00:27;35.35;;;20.27;;
34541;SDS011;20784;51.332;12.410;2024-02-26T06:02:57;35.47;;;20.60;;
34541;SDS011;20784;51.332;12.410;2024-02-26T06:05:38;34.95;;;20.05;;
34541;SDS011;20784;51.332;12.410;2024-02-26T06:08:39;30.88;;;19.98;;
34541;SDS011;20784;51.332;12.410;2024-02-26T06:11:09;36.03;;;20.40;;
34541;SDS011;20784;51.332;12.410;2024-02-26T06:14:02;35.25;;;19.88;;
34541;SDS011;20784;51.332;12.410;2024-02-26T06:16:30;33.45;;;20.05;;
34541;SDS011;20784;51.332;12.410;2024-02-26T06:19:08;31.27;;;19.67;;
34541;SDS011;20784;51.332;12.410;2024-02-26T06:21:53;31.15;;;20.13;;
34541;SDS011;20784;51.332;12.410;2024-02-26T06:24:21;29.70;;;18.73;;
34541;SDS011;20784;51.332;12.410;2024-02-26T06:26:55;31.60;;;19.73;;
34541;SDS011;20784;51.332;12.410;2024-02-26T06:29:21;30.25;;;19.48;;
34541;SDS011;20784;51.332;12.410;2024-02-26T06:31:59;29.63;;;18.70;;
34541;SDS011;20784;51.332;12.410;2024-02-26T06:34:27;30.07;;;19.77;;
34541;SDS011;20784;51.332;12.410;2024-02-26T06:36:52;29.77;;;19.05;;
34541;SDS011;20784;51.332;12.410;2024-02-26T06:39:18;31.08;;;18.98;;
34541;SDS011;20784;51.332;12.410;2024-02-26T06:41:44;29.27;;;18.55;;
34541;SDS011;20784;51.332;12.410;2024-02-26T06:44:11;33.65;;;20.10;;
34541;SDS011;20784;51.332;12.410;2024-02-26T06:46:38;29.75;;;20.23;;
34541;SDS011;20784;51.332;12.410;2024-02-26T06:49:04;30.50;;;18.95;;
34541;SDS011;20784;51.332;12.410;2024-02-26T06:51:30;26.25;;;17.98;;
34541;SDS011;20784;51.332;12.410;2024-02-26T06:53:55;32.42;;;18.85;;
34541;SDS011;20784;51.332;12.410;2024-02-26T06:56:21;31.98;;;18.42;;
34541;SDS011;20784;51.332;12.410;2024-02-26T06:58:47;33.38;;;17.88;;
34541;SDS011;20784;51.332;12.410;2024-02-26T07:01:12;32.13;;;18.75;;
34541;SDS011;20784;51.332;12.410;2024-02-26T07:03:40;30.30;;;17.35;;
34541;SDS011;20784;51.332;12.410;2024-02-26T07:06:05;30.00;;;17.42;;
34541;SDS011;20784;51.332;12.410;2024-02-26T07:08:31;29.40;;;17.63;;
34541;SDS011;20784;51.332;12.410;2024-02-26T07:10:57;25.95;;;16.95;;
34541;SDS011;20784;51.332;12.410;2024-02-26T07:13:23;26.95;;;16.58;;
34541;SDS011;20784;51.332;12.410;2024-02-26T07:15:48;23.30;;;15.32;;
34541;SDS011;20784;51.332;12.410;2024-02-26T07:18:14;22.77;;;15.52;;
34541;SDS011;20784;51.332;12.410;2024-02-26T07:20:39;25.13;;;15.00;;
34541;SDS011;20784;51.332;12.410;2024-02-26T07:23:05;26.15;;;14.55;;
34541;SDS011;20784;51.332;12.410;2024-02-26T07:25:34;23.20;;;14.90;;
34541;SDS011;20784;51.332;12.410;2024-02-26T07:28:03;21.05;;;14.25;;
34541;SDS011;20784;51.332;12.410;2024-02-26T07:30:29;23.80;;;14.63;;
34541;SDS011;20784;51.332;12.410;2024-02-26T07:32:55;21.13;;;13.93;;
34541;SDS011;20784;51.332;12.410;2024-02-26T07:35:21;23.10;;;14.75;;
34541;SDS011;20784;51.332;12.410;2024-02-26T07:37:50;23.15;;;13.85;;
34541;SDS011;20784;51.332;12.410;2024-02-26T07:40:15;21.05;;;13.77;;
34541;SDS011;20784;51.332;12.410;2024-02-26T07:42:41;21.42;;;14.18;;
34541;SDS011;20784;51.332;12.410;2024-02-26T07:45:07;21.80;;;14.18;;
34541;SDS011;20784;51.332;12.410;2024-02-26T07:47:33;21.40;;;13.20;;
34541;SDS011;20784;51.332;12.410;2024-02-26T07:50:00;20.92;;;13.30;;
34541;SDS011;20784;51.332;12.410;2024-02-26T07:52:26;19.48;;;13.73;;
34541;SDS011;20784;51.332;12.410;2024-02-26T07:54:52;19.42;;;12.75;;
34541;SDS011;20784;51.332;12.410;2024-02-26T07:57:17;19.10;;;12.98;;
34541;SDS011;20784;51.332;12.410;2024-02-26T07:59:49;19.52;;;11.82;;
34541;SDS011;20784;51.332;12.410;2024-02-26T08:02:15;17.45;;;12.20;;
34541;SDS011;20784;51.332;12.410;2024-02-26T08:04:41;20.27;;;12.48;;
34541;SDS011;20784;51.332;12.410;2024-02-26T08:07:07;19.05;;;11.95;;
34541;SDS011;20784;51.332;12.410;2024-02-26T08:09:32;19.85;;;11.60;;
34541;SDS011;20784;51.332;12.410;2024-02-26T08:11:58;18.83;;;11.05;;
34541;SDS011;20784;51.332;12.410;2024-02-26T08:14:24;17.25;;;11.32;;
34541;SDS011;20784;51.332;12.410;2024-02-26T08:16:49;17.38;;;10.80;;
34541;SDS011;20784;51.332;12.410;2024-02-26T08:19:15;19.17;;;11.23;;
34541;SDS011;20784;51.332;12.410;2024-02-26T08:21:43;18.55;;;10.85;;
34541;SDS011;20784;51.332;12.410;2024-02-26T08:24:09;21.65;;;12.43;;
34541;SDS011;20784;51.332;12.410;2024-02-26T08:26:34;16.77;;;10.35;;
34541;SDS011;20784;51.332;12.410;2024-02-26T08:29:00;16.45;;;10.82;;
34541;SDS011;20784;51.332;12.410;2024-02-26T08:31:25;16.13;;;10.57;;
34541;SDS011;20784;51.332;12.410;2024-02-26T08:33:52;16.42;;;10.18;;
34541;SDS011;20784;51.332;12.410;2024-02-26T08:36:18;14.82;;;10.63;;
34541;SDS011;20784;51.332;12.410;2024-02-26T08:38:43;15.55;;;10.85;;
34541;SDS011;20784;51.332;12.410;2024-02-26T08:41:09;16.85;;;10.65;;
34541;SDS011;20784;51.332;12.410;2024-02-26T08:43:35;17.00;;;9.60;;
34541;SDS011;20784;51.332;12.410;2024-02-26T08:46:00;16.20;;;9.65;;
34541;SDS011;20784;51.332;12.410;2024-02-26T08:48:26;13.90;;;9.70;;
34541;SDS011;20784;51.332;12.410;2024-02-26T08:50:52;13.45;;;9.98;;
34541;SDS011;20784;51.332;12.410;2024-02-26T08:53:20;13.82;;;8.95;;
34541;SDS011;20784;51.332;12.410;2024-02-26T08:55:46;14.65;;;9.45;;
34541;SDS011;20784;51.332;12.410;2024-02-26T08:58:17;13.65;;;8.75;;
34541;SDS011;20784;51.332;12.410;2024-02-26T09:00:43;13.35;;;9.25;;
34541;SDS011;20784;51.332;12.410;2024-02-26T09:03:09;13.35;;;8.43;;
34541;SDS011;20784;51.332;12.410;2024-02-26T09:05:34;13.65;;;8.65;;
34541;SDS011;20784;51.332;12.410;2024-02-26T09:08:00;13.45;;;8.15;;
34541;SDS011;20784;51.332;12.410;2024-02-26T09:10:26;12.52;;;8.95;;
34541;SDS011;20784;51.332;12.410;2024-02-26T09:12:51;12.82;;;8.02;;
34541;SDS011;20784;51.332;12.410;2024-02-26T09:15:20;12.93;;;8.20;;
34541;SDS011;20784;51.332;12.410;2024-02-26T09:17:45;13.63;;;8.70;;
34541;SDS011;20784;51.332;12.410;2024-02-26T09:20:15;11.80;;;7.38;;
34541;SDS011;20784;51.332;12.410;2024-02-26T09:22:44;10.73;;;7.20;;
34541;SDS011;20784;51.332;12.410;2024-02-26T09:25:10;11.50;;;6.82;;
34541;SDS011;20784;51.332;12.410;2024-02-26T09:27:39;12.15;;;6.88;;
34541;SDS011;20784;51.332;12.410;2024-02-26T09:30:05;11.63;;;7.43;;
34541;SDS011;20784;51.332;12.410;2024-02-26T09:32:31;11.95;;;6.95;;
34541;SDS011;20784;51.332;12.410;2024-02-26T09:34:56;9.05;;;6.30;;
34541;SDS011;20784;51.332;12.410;2024-02-26T09:37:22;13.27;;;6.28;;
34541;SDS011;20784;51.332;12.410;2024-02-26T09:39:47;11.20;;;6.18;;
34541;SDS011;20784;51.332;12.410;2024-02-26T09:42:13;10.25;;;6.22;;
34541;SDS011;20784;51.332;12.410;2024-02-26T09:44:40;8.77;;;5.22;;
34541;SDS011;20784;51.332;12.410;2024-02-26T09:47:10;11.13;;;4.93;;
34541;SDS011;20784;51.332;12.410;2024-02-26T09:49:38;9.52;;;4.85;;
34541;SDS011;20784;51.332;12.410;2024-02-26T09:52:07;11.70;;;5.07;;
34541;SDS011;20784;51.332;12.410;2024-02-26T09:54:34;11.73;;;5.40;;
34541;SDS011;20784;51.332;12.410;2024-02-26T09:57:01;10.48;;;5.22;;
34541;SDS011;20784;51.332;12.410;2024-02-26T09:59:37;7.97;;;4.95;;
34541;SDS011;20784;51.332;12.410;2024-02-26T10:04:38;11.77;;;5.47;;
34541;SDS011;20784;51.332;12.410;2024-02-26T10:07:07;9.77;;;5.05;;
34541;SDS011;20784;51.332;12.410;2024-02-26T10:09:36;10.33;;;5.90;;
34541;SDS011;20784;51.332;12.410;2024-02-26T10:12:02;8.50;;;4.78;;
34541;SDS011;20784;51.332;12.410;2024-02-26T10:14:28;9.63;;;5.55;;
34541;SDS011;20784;51.332;12.410;2024-02-26T10:16:54;8.27;;;4.65;;
34541;SDS011;20784;51.332;12.410;2024-02-26T10:19:26;12.75;;;4.88;;
34541;SDS011;20784;51.332;12.410;2024-02-26T10:21:58;7.85;;;4.97;;
34541;SDS011;20784;51.332;12.410;2024-02-26T10:24:25;10.38;;;4.57;;
34541;SDS011;20784;51.332;12.410;2024-02-26T10:26:55;7.47;;;4.75;;
34541;SDS011;20784;51.332;12.410;2024-02-26T10:29:21;6.35;;;4.10;;
34541;SDS011;20784;51.332;12.410;2024-02-26T10:31:50;9.48;;;4.10;;
34541;SDS011;20784;51.332;12.410;2024-02-26T10:34:16;6.15;;;3.95;;
34541;SDS011;20784;51.332;12.410;2024-02-26T10:36:42;8.20;;;4.43;;
34541;SDS011;20784;51.332;12.410;2024-02-26T10:39:08;6.35;;;3.95;;
34541;SDS011;20784;51.332;12.410;2024-02-26T10:41:40;7.00;;;3.90;;
34541;SDS011;20784;51.332;12.410;2024-02-26T10:44:11;5.90;;;4.35;;
34541;SDS011;20784;51.332;12.410;2024-02-26T10:46:40;11.00;;;5.07;;
34541;SDS011;20784;51.332;12.410;2024-02-26T10:49:07;9.95;;;4.22;;
34541;SDS011;20784;51.332;12.410;2024-02-26T10:51:38;8.38;;;4.70;;
34541;SDS011;20784;51.332;12.410;2024-02-26T10:54:08;10.05;;;4.63;;
34541;SDS011;20784;51.332;12.410;2024-02-26T10:56:37;11.75;;;4.70;;
34541;SDS011;20784;51.332;12.410;2024-02-26T10:59:06;9.15;;;4.30;;
34541;SDS011;20784;51.332;12.410;2024-02-26T11:01:34;6.90;;;4.35;;
34541;SDS011;20784;51.332;12.410;2024-02-26T11:04:02;7.88;;;4.63;;
34541;SDS011;20784;51.332;12.410;2024-02-26T11:06:31;10.40;;;4.43;;
34541;SDS011;20784;51.332;12.410;2024-02-26T11:08:59;8.05;;;4.57;;
34541;SDS011;20784;51.332;12.410;2024-02-26T11:11:27;11.48;;;4.80;;
34541;SDS011;20784;51.332;12.410;2024-02-26T11:13:54;12.02;;;4.63;;
34541;SDS011;20784;51.332;12.410;2024-02-26T11:16:21;8.80;;;5.20;;
34541;SDS011;20784;51.332;12.410;2024-02-26T11:18:47;9.60;;;4.85;;
34541;SDS011;20784;51.332;12.410;2024-02-26T11:21:17;7.40;;;4.65;;
34541;SDS011;20784;51.332;12.410;2024-02-26T11:23:52;8.50;;;5.18;;
34541;SDS011;20784;51.332;12.410;2024-02-26T11:26:18;11.73;;;5.78;;
34541;SDS011;20784;51.332;12.410;2024-02-26T11:28:45;9.10;;;5.70;;
34541;SDS011;20784;51.332;12.410;2024-02-26T11:31:17;9.02;;;5.40;;
34541;SDS011;20784;51.332;12.410;2024-02-26T11:33:51;10.27;;;5.65;;
34541;SDS011;20784;51.332;12.410;2024-02-26T11:36:21;11.85;;;5.63;;
34541;SDS011;20784;51.332;12.410;2024-02-26T11:38:49;12.00;;;6.38;;
34541;SDS011;20784;51.332;12.410;2024-02-26T11:41:19;8.23;;;5.82;;
34541;SDS011;20784;51.332;12.410;2024-02-26T11:43:52;9.73;;;5.90;;
34541;SDS011;20784;51.332;12.410;2024-02-26T11:46:29;8.48;;;5.80;;
34541;SDS011;20784;51.332;12.410;2024-02-26T11:49:03;9.45;;;5.60;;
34541;SDS011;20784;51.332;12.410;2024-02-26T11:51:51;11.70;;;6.13;;
34541;SDS011;20784;51.332;12.410;2024-02-26T11:57:20;10.63;;;6.47;;
34541;SDS011;20784;51.332;12.410;2024-02-26T12:02:39;10.75;;;5.57;;
34541;SDS011;20784;51.332;12.410;2024-02-26T12:05:07;11.55;;;5.57;;
34541;SDS011;20784;51.332;12.410;2024-02-26T12:07:37;8.95;;;5.07;;
34541;SDS011;20784;51.332;12.410;2024-02-26T12:10:12;7.38;;;5.47;;
34541;SDS011;20784;51.332;12.410;2024-02-26T12:12:59;13.30;;;6.10;;
34541;SDS011;20784;51.332;12.410;2024-02-26T12:15:30;9.85;;;6.47;;
34541;SDS011;20784;51.332;12.410;2024-02-26T12:18:00;10.80;;;6.45;;
34541;SDS011;20784;51.332;12.410;2024-02-26T12:20:27;11.20;;;6.90;;
34541;SDS011;20784;51.332;12.410;2024-02-26T12:22:56;13.60;;;7.57;;
34541;SDS011;20784;51.332;12.410;2024-02-26T12:25:23;11.32;;;6.72;;
34541;SDS011;20784;51.332;12.410;2024-02-26T12:27:51;15.20;;;7.43;;
34541;SDS011;20784;51.332;12.410;2024-02-26T12:30:17;14.23;;;7.50;;
34541;SDS011;20784;51.332;12.410;2024-02-26T12:32:46;13.40;;;7.15;;
34541;SDS011;20784;51.332;12.410;2024-02-26T12:35:13;16.25;;;7.60;;
34541;SDS011;20784;51.332;12.410;2024-02-26T12:37:39;12.23;;;7.90;;
34541;SDS011;20784;51.332;12.410;2024-02-26T12:40:08;15.02;;;8.02;;
34541;SDS011;20784;51.332;12.410;2024-02-26T12:42:55;12.15;;;7.47;;
34541;SDS011;20784;51.332;12.410;2024-02-26T12:45:22;16.65;;;7.40;;
34541;SDS011;20784;51.332;12.410;2024-02-26T12:47:50;10.85;;;7.35;;
34541;SDS011;20784;51.332;12.410;2024-02-26T12:50:16;13.52;;;7.72;;
34541;SDS011;20784;51.332;12.410;2024-02-26T12:52:46;15.55;;;7.82;;
34541;SDS011;20784;51.332;12.410;2024-02-26T12:55:14;11.07;;;7.40;;
34541;SDS011;20784;51.332;12.410;2024-02-26T12:57:41;13.70;;;7.53;;
34541;SDS011;20784;51.332;12.410;2024-02-26T13:00:12;11.52;;;7.20;;
34541;SDS011;20784;51.332;12.410;2024-02-26T13:02:40;13.05;;;6.95;;
34541;SDS011;20784;51.332;12.410;2024-02-26T13:05:09;12.32;;;6.55;;
34541;SDS011;20784;51.332;12.410;2024-02-26T13:07:40;12.88;;;7.07;;
34541;SDS011;20784;51.332;12.410;2024-02-26T13:10:07;12.60;;;7.07;;
34541;SDS011;20784;51.332;12.410;2024-02-26T13:12:33;12.95;;;6.03;;
34541;SDS011;20784;51.332;12.410;2024-02-26T13:14:59;13.23;;;6.60;;
34541;SDS011;20784;51.332;12.410;2024-02-26T13:17:26;11.57;;;6.95;;
34541;SDS011;20784;51.332;12.410;2024-02-26T13:19:53;13.73;;;6.78;;
34541;SDS011;20784;51.332;12.410;2024-02-26T13:22:24;11.93;;;6.85;;
34541;SDS011;20784;51.332;12.410;2024-02-26T13:24:54;15.55;;;6.88;;
34541;SDS011;20784;51.332;12.410;2024-02-26T13:27:21;12.55;;;7.10;;
34541;SDS011;20784;51.332;12.410;2024-02-26T13:29:47;10.18;;;6.90;;
34541;SDS011;20784;51.332;12.410;2024-02-26T13:32:13;10.85;;;7.15;;
34541;SDS011;20784;51.332;12.410;2024-02-26T13:34:38;11.88;;;7.18;;
34541;SDS011;20784;51.332;12.410;2024-02-26T13:37:06;11.50;;;6.72;;
34541;SDS011;20784;51.332;12.410;2024-02-26T13:39:34;14.85;;;6.65;;
34541;SDS011;20784;51.332;12.410;2024-02-26T13:41:59;14.40;;;7.20;;
34541;SDS011;20784;51.332;12.410;2024-02-26T13:44:25;11.20;;;7.07;;
34541;SDS011;20784;51.332;12.410;2024-02-26T13:46:50;11.27;;;6.63;;
34541;SDS011;20784;51.332;12.410;2024-02-26T13:49:16;20.92;;;7.35;;
34541;SDS011;20784;51.332;12.410;2024-02-26T13:51:42;14.38;;;7.43;;
34541;SDS011;20784;51.332;12.410;2024-02-26T13:54:07;13.38;;;6.90;;
34541;SDS011;20784;51.332;12.410;2024-02-26T13:56:35;12.52;;;6.63;;
34541;SDS011;20784;51.332;12.410;2024-02-26T13:59:01;10.88;;;6.57;;
34541;SDS011;20784;51.332;12.410;2024-02-26T14:01:26;12.82;;;6.78;;
34541;SDS011;20784;51.332;12.410;2024-02-26T14:03:53;14.13;;;6.82;;
34541;SDS011;20784;51.332;12.410;2024-02-26T14:06:22;13.88;;;6.47;;
34541;SDS011;20784;51.332;12.410;2024-02-26T14:08:48;14.20;;;6.25;;
34541;SDS011;20784;51.332;12.410;2024-02-26T14:11:13;12.75;;;7.35;;
34541;SDS011;20784;51.332;12.410;2024-02-26T14:13:39;11.95;;;6.60;;
34541;SDS011;20784;51.332;12.410;2024-02-26T14:16:08;13.88;;;6.45;;
34541;SDS011;20784;51.332;12.410;2024-02-26T14:18:35;12.18;;;5.82;;
34541;SDS011;20784;51.332;12.410;2024-02-26T14:21:01;10.70;;;5.88;;
34541;SDS011;20784;51.332;12.410;2024-02-26T14:23:29;10.55;;;5.60;;
34541;SDS011;20784;51.332;12.410;2024-02-26T14:26:01;12.65;;;5.30;;
34541;SDS011;20784;51.332;12.410;2024-02-26T14:28:27;10.15;;;5.55;;
34541;SDS011;20784;51.332;12.410;2024-02-26T14:30:54;8.68;;;5.72;;
34541;SDS011;20784;51.332;12.410;2024-02-26T14:33:20;10.18;;;6.00;;
34541;SDS011;20784;51.332;12.410;2024-02-26T14:35:45;12.48;;;5.85;;
34541;SDS011;20784;51.332;12.410;2024-02-26T14:38:11;8.38;;;5.72;;
34541;SDS011;20784;51.332;12.410;2024-02-26T14:40:40;9.65;;;5.43;;
34541;SDS011;20784;51.332;12.410;2024-02-26T14:43:08;9.13;;;6.00;;
34541;SDS011;20784;51.332;12.410;2024-02-26T14:45:35;9.85;;;5.50;;
34541;SDS011;20784;51.332;12.410;2024-02-26T14:48:07;9.90;;;5.88;;
34541;SDS011;20784;51.332;12.410;2024-02-26T14:50:36;9.93;;;5.35;;